createdAt,value
2023-03-17T00:02:08.247Z,15.20
2023-03-17T00:04:36.632Z,15.20
2023-03-17T00:07:06.287Z,14.90
2023-03-17T00:09:34.470Z,15.10
2023-03-17T00:12:02.715Z,15.60
2023-03-17T00:14:32.330Z,15.70
2023-03-17T00:17:00.839Z,15.20
2023-03-17T00:19:32.159Z,15.50
2023-03-17T00:22:00.938Z,15.70
2023-03-17T00:24:29.874Z,15.80
2023-03-17T00:26:58.131Z,15.90
2023-03-17T00:29:26.881Z,16.00
2023-03-17T00:31:57.965Z,16.10
2023-03-17T00:34:27.260Z,16.40
2023-03-17T00:36:56.084Z,16.00
2023-03-17T00:39:25.357Z,16.00
2023-03-17T00:41:55.793Z,16.00
2023-03-17T00:44:24.173Z,15.90
2023-03-17T00:46:52.513Z,15.90
2023-03-17T00:49:24.679Z,16.10
2023-03-17T00:51:53.370Z,16.30
2023-03-17T00:54:24.104Z,16.00
2023-03-17T00:56:53.161Z,15.80
2023-03-17T00:59:25.957Z,16.00
2023-03-17T01:01:55.309Z,15.90
2023-03-17T01:04:25.474Z,15.90
2023-03-17T01:06:54.505Z,16.00
2023-03-17T01:09:26.831Z,16.10
2023-03-17T01:11:55.722Z,16.00
2023-03-17T01:14:24.970Z,16.00
2023-03-17T01:16:55.036Z,15.70
2023-03-17T01:19:25.331Z,15.00
2023-03-17T01:21:53.531Z,14.70
2023-03-17T01:24:21.707Z,14.60
2023-03-17T01:26:50.158Z,14.90
2023-03-17T01:29:18.349Z,15.40
2023-03-17T01:31:47.627Z,15.70
2023-03-17T01:34:16.407Z,15.90
2023-03-17T01:36:46.789Z,16.10
2023-03-17T01:39:16.096Z,16.00
2023-03-17T01:41:45.571Z,15.80
2023-03-17T01:44:18.334Z,16.00
2023-03-17T01:46:47.281Z,16.10
2023-03-17T01:49:26.761Z,16.00
2023-03-17T01:52:06.061Z,15.60
2023-03-17T01:54:40.826Z,15.10
2023-03-17T01:57:13.953Z,15.10
2023-03-17T01:59:46.652Z,15.50
2023-03-17T02:02:21.200Z,15.50
2023-03-17T02:04:50.446Z,15.50
2023-03-17T02:07:20.479Z,15.00
2023-03-17T02:09:49.010Z,14.40
2023-03-17T02:12:23.450Z,14.50
2023-03-17T02:14:52.811Z,15.10
2023-03-17T02:17:22.943Z,15.10
2023-03-17T02:19:52.166Z,14.90
2023-03-17T02:22:21.975Z,15.20
2023-03-17T02:24:55.881Z,15.60
2023-03-17T02:27:29.786Z,14.90
2023-03-17T02:29:59.791Z,14.30
2023-03-17T02:32:28.312Z,14.50
2023-03-17T02:34:57.184Z,14.20
2023-03-17T02:37:26.821Z,14.00
2023-03-17T02:39:55.046Z,14.00
2023-03-17T02:42:23.365Z,14.40
2023-03-17T02:44:51.580Z,14.80
2023-03-17T02:47:20.613Z,15.00
2023-03-17T02:49:50.094Z,15.10
2023-03-17T02:52:18.256Z,15.30
2023-03-17T02:54:47.793Z,15.50
2023-03-17T02:57:15.981Z,15.70
2023-03-17T02:59:44.263Z,15.80
2023-03-17T03:02:15.406Z,15.90
2023-03-17T03:04:44.140Z,16.00
2023-03-17T03:07:12.558Z,16.00
2023-03-17T03:09:41.964Z,15.70
2023-03-17T03:12:11.877Z,15.40
2023-03-17T03:14:40.851Z,15.50
2023-03-17T03:17:10.707Z,14.90
2023-03-17T03:19:39.306Z,15.20
2023-03-17T03:22:08.365Z,15.40
2023-03-17T03:24:36.924Z,15.40
2023-03-17T03:27:05.353Z,15.50
2023-03-17T03:29:35.017Z,15.40
2023-03-17T03:32:03.222Z,15.50
2023-03-17T03:34:31.894Z,15.70
2023-03-17T03:37:00.091Z,15.70
2023-03-17T03:39:28.341Z,15.70
2023-03-17T03:41:58.184Z,15.80
2023-03-17T03:44:26.460Z,15.10
2023-03-17T03:46:56.006Z,15.40
2023-03-17T03:49:24.422Z,15.40
2023-03-17T03:51:52.589Z,15.50
2023-03-17T03:54:20.791Z,15.20
2023-03-17T03:56:48.964Z,15.10
2023-03-17T03:59:17.268Z,14.90
2023-03-17T04:01:45.642Z,15.20
2023-03-17T04:04:15.438Z,14.40
2023-03-17T04:06:43.648Z,14.40
2023-03-17T04:09:12.644Z,14.90
2023-03-17T04:11:40.847Z,15.10
2023-03-17T04:14:09.228Z,15.20
2023-03-17T04:16:37.370Z,15.20
2023-03-17T04:19:05.630Z,15.00
2023-03-17T04:21:35.223Z,14.40
2023-03-17T04:24:05.117Z,14.30
2023-03-17T04:26:33.744Z,14.40
2023-03-17T04:29:01.998Z,14.30
2023-03-17T04:31:30.690Z,14.40
2023-03-17T04:33:58.925Z,14.00
2023-03-17T04:36:27.134Z,14.40
2023-03-17T04:38:56.703Z,14.50
2023-03-17T04:41:24.991Z,15.00
2023-03-17T04:43:53.426Z,14.80
2023-03-17T04:46:21.906Z,14.70
2023-03-17T04:48:50.056Z,14.60
2023-03-17T04:51:18.673Z,14.60
2023-03-17T04:53:46.855Z,14.60
2023-03-17T04:56:16.720Z,14.10
2023-03-17T04:58:45.499Z,14.50
2023-03-17T05:01:13.712Z,14.40
2023-03-17T05:03:41.965Z,14.10
2023-03-17T05:06:10.177Z,13.80
2023-03-17T05:08:38.382Z,14.40
2023-03-17T05:11:06.965Z,14.60
2023-03-17T05:13:36.526Z,14.00
2023-03-17T05:16:04.839Z,13.60
2023-03-17T05:18:33.135Z,13.70
2023-03-17T05:21:01.552Z,14.00
2023-03-17T05:23:30.178Z,14.70
2023-03-17T05:25:58.408Z,13.80
2023-03-17T05:28:26.832Z,14.00
2023-03-17T05:30:57.636Z,14.80
2023-03-17T05:33:26.319Z,15.10
2023-03-17T05:35:54.860Z,15.20
2023-03-17T05:38:23.081Z,15.00
2023-03-17T05:40:52.873Z,15.20
2023-03-17T05:43:21.459Z,14.90
2023-03-17T05:45:50.576Z,15.30
2023-03-17T05:48:20.308Z,15.50
2023-03-17T05:50:49.844Z,15.70
2023-03-17T05:53:18.693Z,15.30
2023-03-17T05:55:46.949Z,15.60
2023-03-17T05:58:17.005Z,16.20
2023-03-17T06:00:46.173Z,16.50
2023-03-17T06:03:14.477Z,16.80
2023-03-17T06:05:44.169Z,17.20
2023-03-17T06:08:12.996Z,17.10
2023-03-17T06:10:41.274Z,17.30
2023-03-17T06:13:09.689Z,17.50
2023-03-17T06:15:38.046Z,17.60
2023-03-17T06:18:07.350Z,17.90
2023-03-17T06:20:38.150Z,18.10
2023-03-17T06:23:07.986Z,18.30
2023-03-17T06:25:37.115Z,18.40
2023-03-17T06:28:06.184Z,18.60
2023-03-17T06:30:38.097Z,18.70
2023-03-17T06:33:08.205Z,18.70
2023-03-17T06:35:36.493Z,18.70
2023-03-17T06:38:05.036Z,18.80
2023-03-17T06:40:34.980Z,19.00
2023-03-17T06:43:03.422Z,19.00
2023-03-17T06:45:35.792Z,19.10
2023-03-17T06:48:04.085Z,19.30
2023-03-17T06:50:32.422Z,19.40
2023-03-17T06:53:00.981Z,19.50
2023-03-17T06:55:29.565Z,19.70
2023-03-17T06:58:00.437Z,19.80
2023-03-17T07:00:30.235Z,19.80
2023-03-17T07:02:58.772Z,19.70
2023-03-17T07:05:27.931Z,19.70
2023-03-17T07:07:56.527Z,19.70
2023-03-17T07:10:24.771Z,19.70
2023-03-17T07:12:53.166Z,19.70
2023-03-17T07:15:22.692Z,19.70
2023-03-17T07:17:55.798Z,19.80
2023-03-17T07:20:24.317Z,19.90
2023-03-17T07:22:52.861Z,19.80
2023-03-17T07:25:21.077Z,19.90
2023-03-17T07:27:49.485Z,19.90
2023-03-17T07:30:19.085Z,20.20
2023-03-17T07:32:49.215Z,20.10
2023-03-17T07:35:17.840Z,20.20
2023-03-17T07:37:47.320Z,20.00
2023-03-17T07:40:17.776Z,19.90
2023-03-17T07:42:46.280Z,19.70
2023-03-17T07:45:14.628Z,19.70
2023-03-17T07:47:42.828Z,19.80
2023-03-17T07:50:13.289Z,19.90
2023-03-17T07:52:42.138Z,20.20
2023-03-17T07:55:13.732Z,20.60
2023-03-17T07:57:42.370Z,20.50
2023-03-17T08:00:13.627Z,20.90
2023-03-17T08:02:42.180Z,21.00
2023-03-17T08:05:13.326Z,21.20
2023-03-17T08:07:41.622Z,21.20
2023-03-17T08:10:11.653Z,21.10
2023-03-17T08:12:40.625Z,20.90
2023-03-17T08:15:12.326Z,21.00
2023-03-17T08:17:41.244Z,20.90
2023-03-17T08:20:11.551Z,21.30
2023-03-17T08:22:41.478Z,21.40
2023-03-17T08:25:12.875Z,21.30
2023-03-17T08:27:41.952Z,21.40
2023-03-17T08:30:13.673Z,21.30
2023-03-17T08:32:42.182Z,21.30
2023-03-17T08:35:15.069Z,21.20
2023-03-17T08:37:45.294Z,21.40
2023-03-17T08:40:17.451Z,21.30
2023-03-17T08:42:46.407Z,21.30
2023-03-17T08:45:18.245Z,21.60
2023-03-17T08:47:47.604Z,21.60
2023-03-17T08:50:19.335Z,21.80
2023-03-17T08:52:49.679Z,21.90
2023-03-17T08:55:18.713Z,21.60
2023-03-17T08:57:47.350Z,21.80
2023-03-17T09:00:20.264Z,22.10
2023-03-17T09:02:49.376Z,22.30
2023-03-17T09:05:18.548Z,22.20
2023-03-17T09:07:50.473Z,22.40
2023-03-17T09:10:22.539Z,22.30
2023-03-17T09:12:51.632Z,22.20
2023-03-17T09:15:21.194Z,22.10
2023-03-17T09:17:49.396Z,22.20
2023-03-17T09:20:18.553Z,22.30
2023-03-17T09:22:49.062Z,22.50
2023-03-17T09:25:17.812Z,22.50
2023-03-17T09:27:46.306Z,22.70
2023-03-17T09:30:15.137Z,22.80
2023-03-17T09:32:44.858Z,22.70
2023-03-17T09:35:16.059Z,22.60
2023-03-17T09:37:44.269Z,22.50
2023-03-17T09:40:17.572Z,22.50
2023-03-17T09:42:58.147Z,22.10
2023-03-17T09:45:33.261Z,22.00
2023-03-17T09:48:23.679Z,22.10
2023-03-17T09:50:56.723Z,22.10
2023-03-17T09:53:34.009Z,22.30
2023-03-17T09:56:10.023Z,22.30
2023-03-17T09:58:40.442Z,22.40
2023-03-17T10:01:12.726Z,22.50
2023-03-17T10:03:41.105Z,22.20
2023-03-17T10:06:28.133Z,22.50
2023-03-17T10:09:02.385Z,22.60
2023-03-17T10:11:40.388Z,22.60
2023-03-17T10:14:21.439Z,22.70
2023-03-17T10:16:56.198Z,23.00
2023-03-17T10:19:29.302Z,23.30
2023-03-17T10:22:02.108Z,23.40
2023-03-17T10:24:33.862Z,23.70
2023-03-17T10:27:06.447Z,24.00
2023-03-17T10:29:36.079Z,23.50
2023-03-17T10:32:04.536Z,23.50
2023-03-17T10:34:37.991Z,23.00
2023-03-17T10:37:08.882Z,22.70
2023-03-17T10:39:46.131Z,22.20
2023-03-17T10:42:24.457Z,22.00
2023-03-17T10:44:56.248Z,22.90
2023-03-17T10:47:30.296Z,22.90
2023-03-17T10:50:00.293Z,22.90
2023-03-17T10:52:31.023Z,22.80
2023-03-17T10:55:03.659Z,22.90
2023-03-17T10:57:34.142Z,23.00
2023-03-17T11:00:05.378Z,23.10
2023-03-17T11:02:44.249Z,23.50
2023-03-17T11:05:23.034Z,23.80
2023-03-17T11:07:51.815Z,24.10
2023-03-17T11:10:23.806Z,23.80
2023-03-17T11:13:01.872Z,24.00
2023-03-17T11:15:34.790Z,24.10
2023-03-17T11:18:06.273Z,23.80
2023-03-17T11:20:47.738Z,23.70
2023-03-17T11:23:39.663Z,23.60
2023-03-17T11:26:17.575Z,23.50
2023-03-17T11:28:51.593Z,23.50
2023-03-17T11:31:31.014Z,23.60
2023-03-17T11:34:08.677Z,23.70
2023-03-17T11:36:50.408Z,23.70
2023-03-17T11:39:26.068Z,23.90
2023-03-17T11:42:07.295Z,24.00
2023-03-17T11:45:15.589Z,23.80
2023-03-17T11:48:00.014Z,23.50
2023-03-17T11:50:32.012Z,23.50
2023-03-17T11:53:15.114Z,23.70
2023-03-17T11:55:46.962Z,23.60
2023-03-17T11:58:30.353Z,23.50
2023-03-17T12:01:02.191Z,23.80
2023-03-17T12:03:41.901Z,23.80
2023-03-17T12:06:16.443Z,23.80
2023-03-17T12:08:50.003Z,23.70
2023-03-17T12:11:24.125Z,23.30
2023-03-17T12:13:59.484Z,23.40
2023-03-17T12:16:33.206Z,23.40
2023-03-17T12:19:10.223Z,23.10
2023-03-17T12:21:46.551Z,23.20
2023-03-17T12:24:20.073Z,23.50
2023-03-17T12:26:55.850Z,23.50
2023-03-17T12:29:33.884Z,23.30
2023-03-17T12:32:08.319Z,23.30
2023-03-17T12:34:44.657Z,23.20
2023-03-17T12:37:14.240Z,23.10
2023-03-17T12:39:50.200Z,23.20
2023-03-17T12:42:30.741Z,23.30
2023-03-17T12:45:32.466Z,23.40
2023-03-17T12:48:37.065Z,23.30
2023-03-17T12:51:41.044Z,23.40
2023-03-17T12:54:16.362Z,23.10
2023-03-17T12:56:47.577Z,23.10
2023-03-17T12:59:19.338Z,22.90
2023-03-17T13:01:57.319Z,23.00
2023-03-17T13:04:29.806Z,23.30
2023-03-17T13:07:09.404Z,23.30
2023-03-17T13:09:47.935Z,23.40
2023-03-17T13:12:52.478Z,23.40
2023-03-17T13:15:55.281Z,23.20
2023-03-17T13:18:43.301Z,23.50
2023-03-17T13:21:16.142Z,23.40
2023-03-17T13:23:46.536Z,23.50
2023-03-17T13:26:18.999Z,23.50
2023-03-17T13:28:49.209Z,23.20
2023-03-17T13:31:38.223Z,23.40
2023-03-17T13:34:24.129Z,23.60
2023-03-17T13:37:02.575Z,23.50
2023-03-17T13:40:14.087Z,23.30
2023-03-17T13:43:09.423Z,23.20
2023-03-17T13:45:39.939Z,23.30
2023-03-17T13:48:32.093Z,23.50
2023-03-17T13:51:04.266Z,23.70
2023-03-17T13:53:38.852Z,23.80
2023-03-17T13:56:17.412Z,23.70
2023-03-17T13:59:14.360Z,23.50
2023-03-17T14:01:46.956Z,23.30
2023-03-17T14:04:21.590Z,23.60
2023-03-17T14:06:53.090Z,23.50
2023-03-17T14:09:33.943Z,23.50
2023-03-17T14:12:07.090Z,23.50
2023-03-17T14:14:45.261Z,23.30
2023-03-17T14:17:16.395Z,23.10
2023-03-17T14:20:06.316Z,23.00
2023-03-17T14:22:40.692Z,22.80
2023-03-17T14:25:17.663Z,22.60
2023-03-17T14:27:47.208Z,22.60
2023-03-17T14:30:22.294Z,22.60
2023-03-17T14:32:56.431Z,23.00
2023-03-17T14:35:25.493Z,23.10
2023-03-17T14:37:53.693Z,23.30
2023-03-17T14:40:26.096Z,23.30
2023-03-17T14:42:54.394Z,23.50
2023-03-17T14:45:29.635Z,23.30
2023-03-17T14:47:58.039Z,23.30
2023-03-17T14:50:29.933Z,23.40
2023-03-17T14:52:59.654Z,23.50
2023-03-17T14:55:38.111Z,23.50
2023-03-17T14:58:11.073Z,23.40
2023-03-17T15:00:45.916Z,23.50
2023-03-17T15:03:20.277Z,23.60
2023-03-17T15:05:49.232Z,23.40
2023-03-17T15:08:46.924Z,23.30
2023-03-17T15:11:23.430Z,23.10
2023-03-17T15:13:56.914Z,23.20
2023-03-17T15:16:29.385Z,23.30
2023-03-17T15:19:09.645Z,23.30
2023-03-17T15:21:41.736Z,23.10
2023-03-17T15:24:39.164Z,22.90
2023-03-17T15:27:15.804Z,22.60
2023-03-17T15:29:44.474Z,22.60
2023-03-17T15:32:15.208Z,22.30
2023-03-17T15:34:43.550Z,22.40
2023-03-17T15:37:22.767Z,22.50
2023-03-17T15:39:55.682Z,22.70
2023-03-17T15:42:28.222Z,22.70
2023-03-17T15:44:56.390Z,22.50
2023-03-17T15:47:28.477Z,22.10
2023-03-17T15:50:01.181Z,21.70
2023-03-17T15:52:30.286Z,21.90
2023-03-17T15:55:00.574Z,22.30
2023-03-17T15:57:33.128Z,22.30
2023-03-17T16:00:01.312Z,21.90
2023-03-17T16:02:32.025Z,22.00
2023-03-17T16:05:03.097Z,22.10
2023-03-17T16:07:32.549Z,22.20
2023-03-17T16:10:02.632Z,22.40
2023-03-17T16:12:32.174Z,22.50
2023-03-17T16:15:01.941Z,22.60
2023-03-17T16:17:32.324Z,22.50
2023-03-17T16:20:01.049Z,22.70
2023-03-17T16:22:39.308Z,22.50
2023-03-17T16:25:19.975Z,22.50
2023-03-17T16:27:51.427Z,22.40
2023-03-17T16:30:21.398Z,22.60
2023-03-17T16:32:50.590Z,22.30
2023-03-17T16:35:20.519Z,22.00
2023-03-17T16:37:52.289Z,22.00
2023-03-17T16:40:23.634Z,22.00
2023-03-17T16:42:54.342Z,21.70
2023-03-17T16:45:28.540Z,21.70
2023-03-17T16:47:57.703Z,21.40
2023-03-17T16:50:27.913Z,21.50
2023-03-17T16:52:56.225Z,21.40
2023-03-17T16:55:27.036Z,21.30
2023-03-17T16:57:58.813Z,21.10
2023-03-17T17:00:29.936Z,21.10
2023-03-17T17:02:58.980Z,21.00
2023-03-17T17:05:29.584Z,21.10
2023-03-17T17:07:58.588Z,21.00
2023-03-17T17:10:28.639Z,21.00
2023-03-17T17:12:58.257Z,20.90
2023-03-17T17:15:26.746Z,20.60
2023-03-17T17:17:57.743Z,20.40
2023-03-17T17:20:30.760Z,20.40
2023-03-17T17:22:59.997Z,20.20
2023-03-17T17:25:29.385Z,20.30
2023-03-17T17:27:59.930Z,20.20
2023-03-17T17:30:32.792Z,20.30
2023-03-17T17:33:02.542Z,20.30
2023-03-17T17:35:33.344Z,20.20
2023-03-17T17:38:02.509Z,20.10
2023-03-17T17:40:33.838Z,20.00
2023-03-17T17:43:03.795Z,19.80
2023-03-17T17:45:32.645Z,19.80
2023-03-17T17:48:00.814Z,19.80
2023-03-17T17:50:31.269Z,19.80
2023-03-17T17:53:05.147Z,20.00
2023-03-17T17:55:36.818Z,19.90
2023-03-17T17:58:06.883Z,20.00
2023-03-17T18:00:38.379Z,19.80
2023-03-17T18:03:06.613Z,20.00
2023-03-17T18:05:35.052Z,19.90
2023-03-17T18:08:03.588Z,19.90
2023-03-17T18:10:32.506Z,20.10
2023-03-17T18:13:00.896Z,20.20
2023-03-17T18:15:33.079Z,20.00
2023-03-17T18:18:01.383Z,19.50
2023-03-17T18:20:30.393Z,19.00
2023-03-17T18:22:58.960Z,19.00
2023-03-17T18:25:27.534Z,19.10
2023-03-17T18:28:00.869Z,19.10
2023-03-17T18:30:35.535Z,19.40
2023-03-17T18:33:07.558Z,19.50
2023-03-17T18:35:36.623Z,19.50
2023-03-17T18:38:05.194Z,19.40
2023-03-17T18:40:34.030Z,19.30
2023-03-17T18:43:02.896Z,19.20
2023-03-17T18:45:32.609Z,19.10
2023-03-17T18:48:00.937Z,19.10
2023-03-17T18:50:29.126Z,19.10
2023-03-17T18:52:57.310Z,19.20
2023-03-17T18:55:25.820Z,19.10
2023-03-17T18:57:54.861Z,19.50
2023-03-17T19:00:25.248Z,19.50
2023-03-17T19:02:57.617Z,19.60
2023-03-17T19:05:26.304Z,19.30
2023-03-17T19:07:57.087Z,19.10
2023-03-17T19:10:25.921Z,18.90
2023-03-17T19:12:54.800Z,19.00
2023-03-17T19:15:23.017Z,19.20
2023-03-17T19:17:52.254Z,19.10
2023-03-17T19:20:22.053Z,19.10
2023-03-17T19:22:53.192Z,19.00
2023-03-17T19:25:23.742Z,19.00
2023-03-17T19:27:51.918Z,19.30
2023-03-17T19:30:20.245Z,19.30
2023-03-17T19:32:48.440Z,19.30
2023-03-17T19:35:16.724Z,19.00
2023-03-17T19:37:46.259Z,19.10
2023-03-17T19:40:14.966Z,18.90
2023-03-17T19:42:43.274Z,19.00
2023-03-17T19:45:11.899Z,19.20
2023-03-17T19:47:40.695Z,19.00
2023-03-17T19:50:11.049Z,19.20
2023-03-17T19:52:39.249Z,19.10
2023-03-17T19:55:10.629Z,19.20
2023-03-17T19:57:39.082Z,18.90
2023-03-17T20:00:11.763Z,19.10
2023-03-17T20:02:40.325Z,18.90
2023-03-17T20:05:10.803Z,19.00
2023-03-17T20:07:39.118Z,18.90
2023-03-17T20:10:10.992Z,19.00
2023-03-17T20:12:39.397Z,19.00
2023-03-17T20:15:12.342Z,19.20
2023-03-17T20:17:41.077Z,19.20
2023-03-17T20:20:10.780Z,19.10
2023-03-17T20:22:40.265Z,19.40
2023-03-17T20:25:11.101Z,19.20
2023-03-17T20:27:40.188Z,19.40
2023-03-17T20:30:12.080Z,19.40
2023-03-17T20:32:40.566Z,19.50
2023-03-17T20:35:11.941Z,19.70
2023-03-17T20:37:40.159Z,20.00
2023-03-17T20:40:11.164Z,19.80
2023-03-17T20:42:39.322Z,19.70
2023-03-17T20:45:08.752Z,19.80
2023-03-17T20:47:37.498Z,19.90
2023-03-17T20:50:08.511Z,19.70
2023-03-17T20:52:41.895Z,19.50
2023-03-17T20:55:14.080Z,19.50
2023-03-17T20:57:43.089Z,19.50
2023-03-17T21:00:16.271Z,19.80
2023-03-17T21:02:45.066Z,19.70
2023-03-17T21:05:17.949Z,19.60
2023-03-17T21:07:46.624Z,19.70
2023-03-17T21:10:16.748Z,19.80
2023-03-17T21:12:45.271Z,19.90
2023-03-17T21:15:15.994Z,20.00
2023-03-17T21:17:44.256Z,19.90
2023-03-17T21:20:16.580Z,19.70
2023-03-17T21:22:46.035Z,19.70
2023-03-17T21:25:15.817Z,19.80
2023-03-17T21:27:44.011Z,19.90
2023-03-17T21:30:14.408Z,19.70
2023-03-17T21:32:43.393Z,19.80
2023-03-17T21:35:11.815Z,19.80
2023-03-17T21:37:40.048Z,19.90
2023-03-17T21:40:09.551Z,20.10
2023-03-17T21:42:39.455Z,19.80
2023-03-17T21:45:08.300Z,19.90
2023-03-17T21:47:40.851Z,20.00
2023-03-17T21:50:10.158Z,19.90
2023-03-17T21:52:38.737Z,20.10
2023-03-17T21:55:09.342Z,20.00
2023-03-17T21:57:39.336Z,20.20
2023-03-17T22:00:10.880Z,20.00
2023-03-17T22:02:42.748Z,20.00
2023-03-17T22:05:11.541Z,20.00
2023-03-17T22:07:41.164Z,19.90
2023-03-17T22:10:11.367Z,20.00
2023-03-17T22:12:40.959Z,20.00
2023-03-17T22:15:10.482Z,20.00
2023-03-17T22:17:39.651Z,20.00
2023-03-17T22:20:09.012Z,20.00
2023-03-17T22:22:37.246Z,19.70
2023-03-17T22:25:06.267Z,19.70
2023-03-17T22:27:34.640Z,19.80
2023-03-17T22:30:04.573Z,19.80
2023-03-17T22:32:34.957Z,19.90
2023-03-17T22:35:04.352Z,20.00
2023-03-17T22:37:32.753Z,19.80
2023-03-17T22:40:03.958Z,19.60
2023-03-17T22:42:32.475Z,19.60
2023-03-17T22:45:05.383Z,18.90
2023-03-17T22:47:34.607Z,19.20
2023-03-17T22:50:02.794Z,19.30
2023-03-17T22:52:36.613Z,18.70
2023-03-17T22:55:05.600Z,18.90
2023-03-17T22:57:33.967Z,19.00
2023-03-17T23:00:02.175Z,18.80
2023-03-17T23:02:31.775Z,19.00
2023-03-17T23:04:59.981Z,18.80
2023-03-17T23:07:29.207Z,18.60
2023-03-17T23:09:58.600Z,18.80
2023-03-17T23:12:28.193Z,18.70
2023-03-17T23:14:57.196Z,18.70
2023-03-17T23:17:26.533Z,18.90
2023-03-17T23:19:56.377Z,18.80
2023-03-17T23:22:24.876Z,18.70
2023-03-17T23:24:53.608Z,18.80
2023-03-17T23:27:21.757Z,18.90
2023-03-17T23:29:50.064Z,19.00
2023-03-17T23:32:18.239Z,18.90
2023-03-17T23:34:46.874Z,18.90
2023-03-17T23:37:19.508Z,18.80
2023-03-17T23:39:51.198Z,18.20
2023-03-17T23:42:19.425Z,18.60
2023-03-17T23:44:47.921Z,18.20
2023-03-17T23:47:16.845Z,18.30
2023-03-17T23:49:45.213Z,18.20
2023-03-17T23:52:13.952Z,18.10
2023-03-17T23:54:44.016Z,18.20
2023-03-17T23:57:12.633Z,17.40
2023-03-17T23:59:41.386Z,17.50
